| Date | Time | Temp. (oF) | Dew Point (oF) | Rel. Hum. (%) | Press. (in.) | Wind Dir. | Wind Speed (mph) | Hourly Rainfall (in.) |
|
|---|---|---|---|---|---|---|---|---|---|
| 1 | 09/06 | 00:00 | 69 | 68 | 100 | 29.88 | S | 0 | 0.00 |
| 2 | 09/05 | 23:00 | 71 | 69 | 94 | 29.89 | ESE | 1 | 0.00 |
| 3 | 09/05 | 22:00 | 73 | 69 | 88 | 29.89 | E | 0 | 0.00 |
| 4 | 09/05 | 21:00 | 74 | 69 | 86 | 29.88 | ENE | 1 | 0.00 |
| 5 | 09/05 | 20:00 | 76 | 70 | 82 | 29.86 | ENE | 2 | 0.00 |
| 6 | 09/05 | 19:00 | 79 | 70 | 75 | 29.84 | ENE | 2 | 0.00 |
| 7 | 09/05 | 18:00 | 81 | 71 | 72 | 29.83 | NE | 4 | 0.00 |
| 8 | 09/05 | 17:00 | 83 | 71 | 69 | 29.82 | NE | 3 | 0.00 |
| 9 | 09/05 | 16:00 | 84 | 71 | 67 | 29.79 | NNE | 6 | 0.00 |
| 10 | 09/05 | 15:00 | 83 | 73 | 73 | 29.81 | NNE | 6 | 0.00 |
| 11 | 09/05 | 14:00 | 83 | 73 | 74 | 29.84 | NNE | 5 | 0.00 |
| 12 | 09/05 | 13:00 | 79 | 73 | 84 | 29.85 | ENE | 4 | 0.00 |
| 13 | 09/05 | 12:00 | 80 | 74 | 83 | 29.85 | N | 8 | 0.00 |
| 14 | 09/05 | 11:00 | 79 | 75 | 89 | 29.85 | S | 2 | 0.00 |
| 15 | 09/05 | 10:00 | 79 | 76 | 91 | 29.84 | S | 3 | 0.00 |
| 16 | 09/05 | 09:00 | 77 | 76 | 97 | 29.84 | SSE | 1 | 0.00 |
| 17 | 09/05 | 08:00 | 75 | 74 | 99 | 29.84 | S | 4 | 0.00 |
| 18 | 09/05 | 07:00 | 74 | 73 | 100 | 29.83 | S | 3 | 0.00 |
| 19 | 09/05 | 06:00 | 75 | 74 | 99 | 29.83 | SSE | 6 | 0.00 |
| 20 | 09/05 | 05:00 | 76 | 74 | 96 | 29.83 | S | 0 | 0.00 |
| 21 | 09/05 | 04:00 | 76 | 74 | 94 | 29.82 | S | 6 | 0.00 |
| 22 | 09/05 | 03:00 | 76 | 73 | 93 | 29.83 | S | 10 | 0.00 |
| 23 | 09/05 | 02:00 | 77 | 74 | 91 | 29.83 | SSE | 9 | 0.00 |
| 24 | 09/05 | 01:00 | 77 | 75 | 96 | 29.84 | SSE | 6 | 0.00 |